Aérodrome :
LOGIN :

S'inscrire | Disclaimer

   EN    FR    IT 

 










Légende :    VFR   VFR Marginal   IFR   IFR Intensif   IFR Très Intensif
Visi : 
Plafond : 
>= 8 km
>= 3000ft
5 à 8 km
1000 à 3000 ft
1500m à 5 km
500 à 1000 ft
800 à 1500m
200 à 500 ft
< 800m
< 200 ft
Symboles :   Orages  Brouillard  Fortes neiges  Fortes précipitations  Vent > 20 kt
SIGMETs :   Divers  Orages  Givrage  Turbulence  Onde Orograph.  Cendres Volcan.







- Altitude de l'aérodrome : 788 ft
- Code IATA : DCM
- Voir les cartes d'approche


LFCK - Castres-Mazamet

DERNIER METAR :
  • 231600Z AUTO 30011KT 9999 OVC043 23/13 Q1020 NOSIG

METARs EXPIRÉS :
  • 231530Z AUTO 28011KT 9999 FEW038 BKN045 23/13 Q1020 NOSIG
  • 231500Z AUTO 29010KT 260V320 9999 BKN041 OVC047 23/13 Q1021 NOSIG
  • 231430Z AUTO 29010KT 9999 BKN041 OVC047 23/13 Q1021 NOSIG
  • 231400Z AUTO 31010KT 9999 OVC039 22/13 Q1021 NOSIG
  • 231330Z AUTO 30011KT 260V340 9999 BKN041 OVC049 23/13 Q1021 NOSIG

TAF TAF LFCK
Valide du 23 à 15h jusqu'au 24 à 00h UTC


231400Z 2315/2324 31010KT 9999 BKN040
TEMPO 2315/2320 SCT040
Pas de NOTAMs connus pour ce terrain.
1 SIGMET publié pour la FIR Bordeaux (LFBB) :
 
Orages noyés dans la masse
LFBB SIGMET 1 VALID 231600/231800 LFPW
LFBB BORDEAUX FIR/UIR EMBD TS OBS WI N4245 E00230 - N4215 E00230 - N4230 E00030 - N4300 E00100 TOP FL360 MOV NE 20KT NC=



MET'MAP, la Météo Aéronautique d'un coup d'oeil ! - Copyright ORBIFLY Décembre 2007 - Disclaimer

ORBIFLY MET'MAP TEAM :

Programmation & Développement : Alexandra Zaïnal
Conception & Développement : Baudouin d'Aumeries
Co-Programmation & Développement : Marc-Olivier Méhu
Soutien technique & logistique : Manuel Goepfert

Contact : metmap@orbifly.com




SOURCES & CREDITS :

   NOAA